Milwaukee, Wisconsin
Traffic Map
Current Weather Conditions
Milwaukee, Wisconsin
Overcast
Overcast
53°
Feels Like: 53°
Wind Chill: 53° Ceiling: 1900
Heat Index: 53° Visibility: 10mi
Dew Point: 50° Wind: 5mph
Humidity: 89% Direction: 290° (WNW)
Pressure: 30.02in Gusts: 0mph
Raw Report DataKMKE 010552Z 29004KT 10SM OVC019 12/10 A3002 RMK AO2 SLP168 60002 T01170100 10117 20100 401220072 58009
Traffic Incident Summary
Active as of:
Severity:
Category:
InformationThere was an issue retrieving the traffic information for this location. Please try a different location or try again shortly.
Advertisements
Track Severe Weather on mobile